CDT,Max TemperatureF,Mean TemperatureF,Min TemperatureF,Max Dew PointF,MeanDew PointF,Min DewpointF,Max Humidity, Mean Humidity, Min Humidity, Max Sea Level PressureIn, Mean Sea Level PressureIn, Min Sea Level PressureIn, Max VisibilityMiles, Mean VisibilityMiles, Min VisibilityMiles, Max Wind SpeedMPH, Mean Wind SpeedMPH, Max Gust SpeedMPH,PrecipitationIn, CloudCover, Events, WindDirDegrees
2013-6-1,78,70,62,75,67,63,100,93,83,29.96,29.90,29.80,10,6,0,15,4,25,0.00,6,Fog-Rain-Thunderstorm,174
2013-6-2,77,66,55,63,59,55,100,77,50,30.03,30.00,29.97,9,7,0,13,2,18,0.00,3,Fog,325
2013-6-3,77,65,53,64,59,54,100,80,57,30.08,30.01,29.94,9,7,2,5,0,,0.00,0,,112
2013-6-4,80,68,55,66,61,54,100,79,51,30.05,29.99,29.94,9,6,3,8,1,,0.00,1,,115
2013-6-5,84,72,60,70,65,59,100,82,55,29.99,29.92,29.83,10,6,2,12,1,,0.00,1,,226
2013-6-6,80,71,62,64,63,63,100,76,54,29.92,29.88,29.83,10,10,6,8,2,,0.00,3,,327
2013-6-7,80,70,60,63,58,52,100,67,41,29.96,29.92,29.88,10,10,9,10,2,16,0.00,3,,333
2013-6-8,82,68,55,64,59,55,100,74,45,29.99,29.95,29.90,10,10,8,10,2,,0.00,1,,171
2013-6-9,82,70,59,72,65,59,100,84,61,29.97,29.90,29.83,10,8,3,12,2,16,0.00,1,Thunderstorm,202
2013-6-10,93,76,59,72,65,57,100,74,36,29.95,29.91,29.88,10,8,0,13,2,21,0.00,1,Fog,244
2013-6-11,93,78,62,75,70,63,100,75,46,30.03,29.99,29.95,10,9,2,10,2,16,0.00,0,,209
2013-6-12,93,80,68,73,72,68,100,75,49,30.04,29.98,29.91,9,7,5,14,3,22,0.00,0,,216
2013-6-13,95,83,71,75,72,66,100,73,43,29.99,29.96,29.92,10,9,1,12,2,17,0.00,0,,317
2013-6-14,87,76,64,72,68,64,100,76,49,30.08,30.02,29.97,10,10,9,7,1,,0.00,0,,118
2013-6-15,87,74,62,72,67,63,100,77,49,30.08,30.03,29.97,10,10,9,9,1,,0.00,0,,158
2013-6-16,89,79,69,77,71,68,100,82,55,30.05,29.99,29.93,10,9,1,12,2,18,0.00,1,Rain-Thunderstorm,225
2013-6-17,82,75,68,75,71,68,100,93,74,29.99,29.93,29.87,10,7,0,10,1,,0.00,4,Rain-Thunderstorm,296
2013-6-18,86,77,68,72,68,64,100,79,51,30.03,29.98,29.92,10,10,5,7,1,,0.00,2,,354
2013-6-19,75,68,62,68,65,63,100,97,78,30.06,30.02,30.00,10,7,5,0,0,,0.00,0,,-1
2013-6-20,,,,,,,,,,,,,,,,,,,0.00,,,-1
2013-6-21,,,,,,,,,,,,,,,,,,,0.00,,,-1
2013-6-22,,,,,,,,,,,,,,,,,,,0.00,,,-1
2013-6-23,,,,,,,,,,,,,,,,,,,0.00,,,-1
2013-6-24,,,,,,,,,,,,,,,,,,,0.00,,,-1
2013-6-25,91,86,80,73,73,72,79,67,52,29.98,29.93,29.90,10,9,9,0,0,,0.00,0,,-1
2013-6-26,95,83,71,81,75,72,100,80,53,29.95,29.91,29.84,10,6,2,0,0,,0.00,0,Rain-Thunderstorm,-1
2013-6-27,100,86,71,84,76,72,100,74,42,29.97,29.92,29.86,10,7,3,0,0,,0.00,0,Thunderstorm,-1
2013-6-28,95,83,71,77,71,64,94,69,36,29.91,29.84,29.78,10,10,6,,,,0.00,1,,-1
2013-6-29,89,76,64,70,61,54,100,65,31,29.85,29.81,29.75,10,10,8,,,,0.00,0,,-1
2013-6-30,80,70,59,63,61,59,100,71,51,29.92,29.86,29.79,10,9,5,,,,0.00,3,,-1